Time;durP1;ratioP1;P1;durP2;ratioP2;P2;SDS_P1;SDS_P2;PMS_P1;PMS_P2;Temp;Humidity;BMP_temperature;BMP_pressure;BME280_temperature;BME280_humidity;BME280_pressure;Samples;Min_cycle;Max_cycle;Signal;HPM_P1;HPM_P2
2022/12/25 00:00:09;;;;;;;24.90;7.05;;;;;;;11.36;67.43;101346.56;5007038;28;97753;-65
2022/12/25 00:02:36;;;;;;;19.17;7.05;;;;;;;11.29;67.60;101352.09;5009731;28;98858;-66
2022/12/25 00:05:03;;;;;;;23.15;7.30;;;;;;;11.29;67.34;101344.16;5006679;28;96806;-66
2022/12/25 00:07:30;;;;;;;22.48;7.18;;;;;;;11.03;68.10;101343.09;5005095;28;96792;-65
2022/12/25 00:09:56;;;;;;;25.05;7.30;;;;;;;11.38;67.17;101351.81;5006980;28;99312;-66
2022/12/25 00:12:24;;;;;;;25.65;7.13;;;;;;;11.34;66.61;101361.63;4998194;28;98862;-66
2022/12/25 00:14:51;;;;;;;26.02;8.20;;;;;;;11.31;66.94;101350.25;5003665;28;96709;-66
2022/12/25 00:17:19;;;;;;;23.42;6.63;;;;;;;11.05;67.79;101353.63;5006177;28;96783;-65
2022/12/25 00:19:46;;;;;;;22.10;7.03;;;;;;;11.09;67.91;101350.00;5005254;28;97321;-66
2022/12/25 00:22:12;;;;;;;25.27;7.45;;;;;;;11.36;66.79;101359.78;4999852;28;98964;-65
2022/12/25 00:24:39;;;;;;;25.02;8.15;;;;;;;11.20;67.28;101361.16;5004481;28;97252;-67
2022/12/25 00:27:06;;;;;;;29.85;7.72;;;;;;;11.25;66.96;101356.59;5000910;27;97623;-68
2022/12/25 00:29:35;;;;;;;24.50;7.63;;;;;;;10.97;67.51;101360.91;5001448;28;99287;-66
2022/12/25 00:32:01;;;;;;;30.77;8.88;;;;;;;11.22;67.04;101361.97;5000437;28;98811;-66
2022/12/25 00:34:28;;;;;;;21.70;6.97;;;;;;;11.06;67.38;101360.66;5005627;28;96758;-65
2022/12/25 00:36:57;;;;;;;26.52;8.07;;;;;;;11.12;67.14;101360.50;5002696;28;96919;-66
2022/12/25 00:39:25;;;;;;;23.10;8.02;;;;;;;10.94;67.62;101361.88;5002314;28;99206;-66
2022/12/25 00:44:42;;;;;;;25.88;8.25;;;;;;;10.97;67.60;101375.00;4993469;27;96820;-65
2022/12/25 00:47:09;;;;;;;27.48;8.23;;;;;;;10.89;67.67;101371.72;5008401;28;96805;-66
2022/12/25 00:49:35;;;;;;;25.90;6.95;;;;;;;11.01;67.36;101373.16;5008802;28;97751;-67
2022/12/25 00:52:02;;;;;;;23.13;8.45;;;;;;;10.93;67.16;101376.00;5005293;28;99817;-67
2022/12/25 00:54:29;;;;;;;23.60;7.63;;;;;;;11.06;67.06;101379.19;5008545;28;96715;-65
2022/12/25 00:56:55;;;;;;;24.15;8.48;;;;;;;10.85;67.69;101391.19;5011694;28;96896;-66
2022/12/25 00:59:22;;;;;;;30.90;8.05;;;;;;;10.98;67.21;101399.66;4997254;28;99085;-67
2022/12/25 01:01:49;;;;;;;25.38;8.35;;;;;;;10.92;67.59;101397.19;5008226;28;98852;-65
2022/12/25 01:04:16;;;;;;;29.30;7.35;;;;;;;10.86;67.45;101397.34;4997643;28;96701;-64
2022/12/25 01:06:42;;;;;;;20.65;7.60;;;;;;;10.84;67.46;101405.31;5006722;28;96784;-65
2022/12/25 01:11:53;;;;;;;20.63;8.27;;;;;;;10.89;67.31;101395.50;5007621;28;97074;-64
2022/12/25 01:14:19;;;;;;;19.77;8.38;;;;;;;10.93;67.29;101402.44;5005601;28;96833;-66
2022/12/25 01:16:46;;;;;;;19.98;7.38;;;;;;;10.88;67.30;101408.75;5010329;28;97888;-68
2022/12/25 01:19:14;;;;;;;30.90;8.57;;;;;;;11.04;66.48;101410.06;5008310;28;96801;-65
2022/12/25 01:21:40;;;;;;;24.10;8.65;;;;;;;11.03;66.58;101409.19;5010571;28;101953;-65
2022/12/25 01:24:07;;;;;;;29.80;8.52;;;;;;;10.76;67.13;101413.44;5007306;28;96764;-66
2022/12/25 01:26:33;;;;;;;31.52;10.32;;;;;;;10.71;67.10;101417.09;5013244;28;96788;-66
2022/12/25 01:29:01;;;;;;;27.75;9.02;;;;;;;10.68;67.14;101428.66;5011578;28;98955;-65
2022/12/25 01:31:27;;;;;;;26.13;8.13;;;;;;;10.74;67.41;101432.91;5007871;28;99078;-66
2022/12/25 01:33:54;;;;;;;25.45;8.68;;;;;;;10.73;66.70;101436.44;5005638;28;96808;-66
2022/12/25 01:36:24;;;;;;;26.40;8.43;;;;;;;10.60;67.29;101438.53;5008182;28;96860;-66
2022/12/25 01:38:51;;;;;;;26.20;9.18;;;;;;;10.54;67.89;101446.63;5004695;28;99302;-66
2022/12/25 01:41:21;;;;;;;26.90;8.18;;;;;;;10.67;67.23;101450.69;5001925;28;100259;-66
2022/12/25 01:44:04;;;;;;;29.58;8.82;;;;;;;10.63;67.42;101451.66;5003440;28;96815;-66
2022/12/25 01:46:31;;;;;;;27.30;9.13;;;;;;;10.60;66.97;101450.88;4999068;28;97066;-65
2022/12/25 01:49:01;;;;;;;34.03;8.90;;;;;;;10.62;67.33;101443.78;5009490;28;98989;-66
2022/12/25 01:51:35;;;;;;;24.15;8.85;;;;;;;10.60;67.43;101437.66;4998569;28;98779;-66
2022/12/25 01:54:05;;;;;;;24.00;7.93;;;;;;;10.63;67.49;101442.88;5005178;28;96774;-66
2022/12/25 01:56:33;;;;;;;34.70;9.77;;;;;;;10.70;67.02;101445.31;5006717;28;96909;-67
2022/12/25 01:59:02;;;;;;;20.85;8.18;;;;;;;10.51;67.41;101435.22;5011965;28;102338;-65
2022/12/25 02:01:28;;;;;;;28.73;8.65;;;;;;;10.66;66.97;101441.03;5000050;28;99301;-66
2022/12/25 02:04:01;;;;;;;28.98;8.30;;;;;;;10.63;66.97;101456.94;5008581;28;96768;-65
2022/12/25 02:06:29;;;;;;;28.08;8.45;;;;;;;10.38;67.59;101450.50;5000642;28;96823;-66
2022/12/25 02:08:59;;;;;;;30.58;8.73;;;;;;;10.57;67.06;101457.09;5008123;28;99643;-66
2022/12/25 02:14:09;;;;;;;22.30;8.48;;;;;;;10.46;67.08;101461.78;5004636;28;96744;-66
2022/12/25 02:19:37;;;;;;;31.33;8.30;;;;;;;10.55;66.96;101452.78;5012541;28;98987;-73
2022/12/25 02:22:16;;;;;;;29.65;8.82;;;;;;;10.54;66.89;101467.75;5003749;28;98962;-71
2022/12/25 02:25:00;;;;;;;26.85;8.38;;;;;;;10.68;66.59;101452.44;4998975;28;97197;-71
2022/12/25 02:27:59;;;;;;;25.60;8.93;;;;;;;10.71;66.31;101460.28;5003758;28;96647;-71
2022/12/25 02:30:26;;;;;;;26.33;8.77;;;;;;;10.62;66.51;101460.53;5003537;28;98906;-71
2022/12/25 02:34:01;;;;;;;25.15;8.43;;;;;;;10.49;66.84;101466.13;5005555;28;98743;-71
2022/12/25 02:35:50;;;;;;;33.78;9.45;;;;;;;10.43;66.70;101469.78;5005818;28;96817;-72
2022/12/25 02:38:22;;;;;;;27.33;8.82;;;;;;;10.56;66.53;101476.53;5002316;28;97113;-71
2022/12/25 02:40:52;;;;;;;32.45;9.50;;;;;;;10.50;66.51;101481.94;5005558;28;98239;-71
2022/12/25 03:08:44;;;;;;;37.70;8.48;;;;;;;10.41;66.59;101479.53;4999170;28;97077;-72
2022/12/25 03:11:29;;;;;;;27.08;8.18;;;;;;;10.44;66.16;101478.56;5006639;28;96835;-71
2022/12/25 03:16:49;;;;;;;27.48;8.23;;;;;;;10.25;66.65;101475.47;5009532;28;98991;-72
2022/12/25 03:16:49;;;;;;;17.67;6.75;;;;;;;10.29;65.57;101479.81;5003537;28;97823;-71
2022/12/25 03:27:31;;;;;;;28.08;8.85;;;;;;;10.13;65.65;101486.28;5002015;28;97104;-71
2022/12/25 03:32:57;;;;;;;22.10;7.72;;;;;;;10.30;64.18;101489.47;5005422;28;96801;-71
2022/12/25 03:35:31;;;;;;;12.82;6.07;;;;;;;10.00;64.32;101497.13;5000620;28;97596;-71
2022/12/25 04:36:28;;;;;;;15.93;7.50;;;;;;;9.22;63.55;101531.19;5010474;28;97097;-70
2022/12/25 04:38:56;;;;;;;17.80;7.30;;;;;;;9.31;63.83;101536.31;5008407;28;96868;-70
2022/12/25 04:41:22;;;;;;;14.15;7.53;;;;;;;9.26;64.18;101537.25;5010869;28;99544;-71
2022/12/25 04:43:49;;;;;;;19.77;7.10;;;;;;;9.06;63.99;101546.38;5000278;28;101186;-71
2022/12/25 04:46:15;;;;;;;15.32;7.30;;;;;;;8.99;64.19;101551.81;5008432;28;96831;-71
2022/12/25 04:48:42;;;;;;;20.00;7.88;;;;;;;8.87;64.36;101544.94;5005930;28;96798;-71
2022/12/25 04:51:17;;;;;;;19.52;7.35;;;;;;;8.70;64.42;101550.50;5004007;28;100126;-71
2022/12/25 04:53:44;;;;;;;20.52;8.02;;;;;;;8.58;64.91;101548.03;5005112;28;98938;-71
2022/12/25 04:56:12;;;;;;;20.83;8.00;;;;;;;8.47;65.81;101543.84;5002559;28;96574;-72
2022/12/25 04:58:39;;;;;;;20.45;8.80;;;;;;;8.89;65.34;101543.16;5005048;28;96755;-70
2022/12/25 05:01:06;;;;;;;18.40;8.02;;;;;;;8.95;65.14;101543.06;5004174;28;98867;-71
2022/12/25 05:03:33;;;;;;;21.48;7.85;;;;;;;8.86;66.19;101543.19;5003599;28;99212;-71
2022/12/25 05:06:00;;;;;;;20.67;8.65;;;;;;;9.02;64.20;101547.34;5003946;28;96727;-71
2022/12/25 05:08:28;;;;;;;16.00;7.30;;;;;;;8.97;63.62;101541.28;5006600;28;96787;-69
2022/12/25 05:10:54;;;;;;;18.90;8.93;;;;;;;8.84;65.63;101541.50;5004582;28;99286;-70
2022/12/25 05:13:23;;;;;;;23.85;8.38;;;;;;;9.10;65.75;101532.28;5007782;28;98786;-71
2022/12/25 05:15:50;;;;;;;17.85;7.57;;;;;;;9.26;64.81;101534.63;5005832;28;96712;-70
2022/12/25 05:18:16;;;;;;;20.67;8.32;;;;;;;9.31;64.38;101535.44;5006645;28;96779;-70
2022/12/25 05:20:43;;;;;;;14.05;6.78;;;;;;;9.26;63.62;101538.13;5000101;28;98959;-69
2022/12/25 05:23:11;;;;;;;17.23;7.15;;;;;;;9.01;63.26;101531.56;5004835;28;98940;-72
2022/12/25 05:25:39;;;;;;;16.50;7.00;;;;;;;8.86;63.61;101537.09;5000339;28;96967;-72
2022/12/25 05:28:05;;;;;;;15.15;6.65;;;;;;;8.51;63.48;101534.97;5008171;28;97954;-71
2022/12/25 05:30:33;;;;;;;10.35;5.93;;;;;;;8.42;63.89;101527.19;4998541;28;102096;-70
2022/12/25 05:33:00;;;;;;;12.07;6.05;;;;;;;8.42;63.94;101530.72;5008042;28;98784;-71
2022/12/25 05:35:26;;;;;;;16.95;6.88;;;;;;;8.56;64.11;101534.00;5007744;28;96894;-72
2022/12/25 05:37:53;;;;;;;17.15;7.05;;;;;;;8.66;63.97;101540.03;5011602;28;97220;-70
2022/12/25 05:40:19;;;;;;;22.17;7.20;;;;;;;8.39;64.58;101536.91;5004362;28;99298;-71
2022/12/25 05:42:46;;;;;;;15.13;7.57;;;;;;;8.63;64.50;101532.16;5007259;28;99879;-71
2022/12/25 05:45:13;;;;;;;22.30;8.27;;;;;;;8.82;64.64;101528.34;5007481;28;96818;-72
2022/12/25 05:47:41;;;;;;;22.25;7.78;;;;;;;8.87;64.55;101530.91;5007740;28;96895;-70
2022/12/25 05:50:08;;;;;;;25.80;8.32;;;;;;;8.90;64.70;101526.47;5011995;28;100906;-71
2022/12/25 05:52:35;;;;;;;28.50;8.00;;;;;;;8.97;64.36;101521.97;5011041;28;98951;-71
2022/12/25 05:55:01;;;;;;;23.23;8.48;;;;;;;9.12;64.25;101522.56;5005759;28;96854;-69
2022/12/25 05:57:28;;;;;;;21.13;8.07;;;;;;;8.93;64.99;101518.50;5008997;28;96729;-70
2022/12/25 05:59:55;;;;;;;19.17;8.43;;;;;;;9.10;64.86;101528.78;5005277;28;99165;-71
2022/12/25 06:02:22;;;;;;;23.52;9.15;;;;;;;9.34;64.11;101516.91;5005896;28;99345;-71
2022/12/25 06:04:50;;;;;;;20.30;7.80;;;;;;;9.18;63.47;101511.94;5002437;28;96747;-71
2022/12/25 06:07:16;;;;;;;21.77;8.18;;;;;;;9.34;63.72;101506.34;5000974;28;98288;-71
2022/12/25 06:09:43;;;;;;;17.42;7.65;;;;;;;9.29;63.72;101508.22;5001940;28;99338;-71
2022/12/25 06:12:10;;;;;;;19.73;7.95;;;;;;;9.32;63.16;101502.91;5004482;28;98872;-71
2022/12/25 06:14:36;;;;;;;22.65;8.27;;;;;;;9.17;63.64;101496.13;5009676;28;96979;-71
2022/12/25 06:17:03;;;;;;;18.67;8.07;;;;;;;9.35;62.52;101495.78;5003517;28;96762;-71
2022/12/25 06:19:29;;;;;;;16.80;7.32;;;;;;;8.77;64.21;101501.19;5007995;28;98783;-72
2022/12/25 06:21:57;;;;;;;21.88;8.07;;;;;;;8.79;65.01;101505.53;5002474;28;99161;-71
2022/12/25 06:24:24;;;;;;;22.13;8.57;;;;;;;9.20;64.01;101496.94;5002920;28;96694;-71
2022/12/25 06:26:51;;;;;;;21.73;7.75;;;;;;;9.17;63.87;101507.56;5004659;28;97021;-71
2022/12/25 06:29:17;;;;;;;23.55;8.45;;;;;;;8.83;64.67;101503.72;5005200;28;98316;-71
2022/12/25 06:31:44;;;;;;;28.40;9.73;;;;;;;8.87;65.32;101510.69;5005498;28;98375;-71
2022/12/25 06:34:10;;;;;;;31.73;9.20;;;;;;;8.89;65.02;101514.19;5003984;28;96762;-71
2022/12/25 06:36:38;;;;;;;31.15;9.13;;;;;;;9.11;64.72;101512.06;5006004;28;97067;-72
2022/12/25 06:39:06;;;;;;;25.63;8.68;;;;;;;8.80;64.97;101503.78;5002892;28;99912;-72
2022/12/25 06:41:32;;;;;;;18.25;6.82;;;;;;;9.00;65.11;101506.06;5006593;28;98994;-70
2022/12/25 06:44:00;;;;;;;23.45;9.45;;;;;;;8.73;65.31;101513.53;5003739;28;97328;-71
2022/12/25 06:46:29;;;;;;;25.05;8.13;;;;;;;8.68;65.54;101517.16;4997066;28;96763;-70
2022/12/25 06:48:56;;;;;;;20.95;8.25;;;;;;;8.78;64.60;101509.09;5008940;28;101331;-71
2022/12/25 06:51:25;;;;;;;20.30;7.70;;;;;;;8.77;64.78;101517.00;4997010;28;99049;-70
2022/12/25 06:53:54;;;;;;;14.55;7.47;;;;;;;8.66;65.28;101521.59;5006670;28;96820;-72
2022/12/25 06:56:23;;;;;;;21.00;7.43;;;;;;;8.68;64.63;101532.94;5007975;28;96873;-70
2022/12/25 06:58:54;;;;;;;14.35;7.28;;;;;;;8.43;65.39;101531.56;5004595;28;99067;-74
2022/12/25 07:01:23;;;;;;;14.38;7.40;;;;;;;8.62;64.77;101530.41;5000782;28;96970;-70
2022/12/25 07:03:52;;;;;;;22.23;7.38;;;;;;;8.46;65.35;101550.00;5005338;28;96791;-70
2022/12/25 07:06:19;;;;;;;18.17;7.55;;;;;;;8.22;65.84;101544.09;5007719;28;96832;-70
2022/12/25 07:08:46;;;;;;;18.30;7.68;;;;;;;8.18;66.15;101538.91;5007832;28;99115;-71
2022/12/25 07:11:12;;;;;;;18.73;7.50;;;;;;;8.20;65.89;101543.28;5009070;28;99150;-70
2022/12/25 07:13:40;;;;;;;19.02;7.38;;;;;;;8.38;65.64;101552.72;5008588;28;96580;-70
2022/12/25 07:16:07;;;;;;;21.92;7.32;;;;;;;8.32;65.93;101561.56;5006023;28;96900;-70
2022/12/25 07:18:34;;;;;;;18.23;7.22;;;;;;;8.44;65.47;101564.94;5005451;28;99897;-71
2022/12/25 07:21:06;;;;;;;24.33;9.27;;;;;;;8.34;66.14;101567.69;5003523;28;99274;-70
2022/12/25 07:23:33;;;;;;;21.40;7.28;;;;;;;8.42;65.94;101566.69;5006045;28;97122;-71
2022/12/25 07:26:01;;;;;;;21.27;8.38;;;;;;;8.59;65.15;101570.00;5012761;28;96772;-71
2022/12/25 07:28:28;;;;;;;21.80;7.70;;;;;;;8.44;65.94;101575.47;5003780;28;97854;-71
2022/12/25 07:31:01;;;;;;;15.30;6.60;;;;;;;8.42;66.40;101577.25;5003353;28;98455;-71
2022/12/25 07:33:28;;;;;;;18.30;8.15;;;;;;;8.29;66.36;101580.00;4998605;28;98075;-71
2022/12/25 07:35:56;;;;;;;21.80;8.23;;;;;;;8.21;66.74;101584.50;5004133;28;97007;-70
2022/12/25 07:38:23;;;;;;;23.92;7.43;;;;;;;8.28;66.50;101575.63;4998684;28;100053;-71
2022/12/25 07:40:50;;;;;;;21.98;7.00;;;;;;;8.37;66.35;101575.56;5003783;28;99138;-71
2022/12/25 07:43:16;;;;;;;20.77;6.97;;;;;;;8.47;65.96;101570.16;5004999;28;97738;-71
2022/12/25 07:45:42;;;;;;;17.98;7.55;;;;;;;8.61;65.34;101573.47;5010417;28;96742;-71
2022/12/25 07:48:10;;;;;;;20.27;8.48;;;;;;;8.53;65.33;101573.59;5004694;28;99032;-71
2022/12/25 07:50:37;;;;;;;20.70;7.32;;;;;;;8.42;65.65;101570.22;5009431;28;98822;-71
2022/12/25 07:53:03;;;;;;;23.05;8.07;;;;;;;8.54;66.03;101567.41;5005410;28;96678;-70
2022/12/25 07:55:30;;;;;;;26.77;7.90;;;;;;;8.63;65.00;101563.78;5008264;28;96769;-71
2022/12/25 07:57:56;;;;;;;16.77;7.50;;;;;;;8.60;65.59;101563.84;5002916;28;98910;-70
2022/12/25 08:00:28;;;;;;;12.68;6.75;;;;;;;8.60;65.53;101562.03;5010037;28;100534;-70
2022/12/25 08:02:54;;;;;;;17.88;7.15;;;;;;;8.62;65.17;101569.94;5009045;28;96723;-71
2022/12/25 08:05:22;;;;;;;11.07;6.47;;;;;;;8.56;65.24;101577.94;5006773;28;97253;-70
2022/12/25 08:07:51;;;;;;;19.70;6.97;;;;;;;8.57;65.34;101577.03;5001571;28;99028;-71
2022/12/25 08:10:18;;;;;;;12.90;6.82;;;;;;;8.69;64.94;101582.13;5010168;28;98863;-71
2022/12/25 08:12:45;;;;;;;17.98;6.47;;;;;;;8.71;65.15;101578.59;5000695;28;96738;-71
2022/12/25 08:15:12;;;;;;;17.08;6.45;;;;;;;8.71;65.27;101581.22;5007268;28;96740;-71
2022/12/25 08:17:39;;;;;;;18.80;6.60;;;;;;;8.68;65.39;101572.47;5000474;28;98914;-70
2022/12/25 08:20:07;;;;;;;14.88;6.55;;;;;;;8.60;65.62;101577.84;5010668;28;98674;-70
2022/12/25 08:22:34;;;;;;;17.58;6.78;;;;;;;8.71;65.83;101581.22;4999568;28;96804;-70
2022/12/25 08:25:01;;;;;;;18.52;7.00;;;;;;;8.82;65.93;101572.28;5013392;28;96911;-71
2022/12/25 08:27:28;;;;;;;14.40;6.68;;;;;;;8.91;65.33;101580.94;5005687;28;99003;-71
2022/12/25 08:29:54;;;;;;;16.38;6.75;;;;;;;9.20;64.82;101573.41;5010868;28;98829;-71
2022/12/25 08:32:21;;;;;;;17.50;7.75;;;;;;;8.96;64.91;101568.53;5005757;28;96730;-71
2022/12/25 08:34:48;;;;;;;16.13;7.25;;;;;;;9.13;65.88;101568.25;5006731;28;96940;-72
2022/12/25 08:37:14;;;;;;;19.75;8.18;;;;;;;9.28;64.98;101578.56;5005078;28;98785;-72
2022/12/25 08:39:42;;;;;;;16.90;7.88;;;;;;;9.28;64.34;101575.03;5010365;28;101435;-72
2022/12/25 08:42:09;;;;;;;15.82;7.35;;;;;;;9.35;64.81;101563.50;5005729;28;96797;-71
2022/12/25 08:44:35;;;;;;;17.17;8.00;;;;;;;9.47;63.64;101564.16;5002910;28;97996;-71
2022/12/25 08:47:02;;;;;;;16.02;7.78;;;;;;;9.55;63.83;101566.66;5006307;28;100318;-72
2022/12/25 08:49:31;;;;;;;19.80;8.05;;;;;;;9.69;63.64;101559.34;5007585;28;98234;-71
2022/12/25 08:51:57;;;;;;;22.08;9.35;;;;;;;9.89;63.43;101545.75;5005185;28;96846;-72
2022/12/25 08:54:24;;;;;;;14.50;8.23;;;;;;;9.72;63.33;101548.72;5010104;28;96861;-71
2022/12/25 08:56:52;;;;;;;15.95;8.13;;;;;;;9.67;62.75;101550.59;5011514;28;99236;-74
2022/12/25 08:59:19;;;;;;;17.88;7.75;;;;;;;9.85;62.81;101530.88;5004231;28;100834;-71
2022/12/25 09:01:45;;;;;;;15.80;8.52;;;;;;;9.90;62.60;101521.97;5003182;28;98069;-72
2022/12/25 09:04:12;;;;;;;20.00;8.50;;;;;;;9.95;62.36;101524.53;5003690;28;98537;-72
2022/12/25 09:06:38;;;;;;;17.20;7.82;;;;;;;9.98;61.63;101532.34;5007638;28;98949;-72
2022/12/25 09:09:05;;;;;;;17.30;8.25;;;;;;;10.07;61.50;101526.03;5012695;28;99545;-74
2022/12/25 09:11:31;;;;;;;15.48;7.63;;;;;;;9.94;61.28;101521.00;5000953;28;96850;-71
2022/12/25 09:14:00;;;;;;;17.38;8.10;;;;;;;10.03;60.87;101512.03;5004178;28;96936;-71
2022/12/25 09:16:26;;;;;;;17.02;7.45;;;;;;;9.84;61.07;101516.81;5001546;28;98955;-72
2022/12/25 09:18:55;;;;;;;17.27;6.90;;;;;;;9.74;62.08;101515.25;5006181;28;98827;-72
2022/12/25 09:21:21;;;;;;;14.02;7.05;;;;;;;9.88;61.18;101509.69;5000622;28;96824;-71
2022/12/25 09:23:48;;;;;;;17.08;8.00;;;;;;;9.65;62.04;101512.78;5011464;28;97180;-72
2022/12/25 09:26:17;;;;;;;17.95;7.90;;;;;;;9.70;62.30;101510.94;5003670;28;98824;-71
2022/12/25 09:28:44;;;;;;;16.98;8.00;;;;;;;9.93;61.82;101523.66;5010202;28;99104;-72
2022/12/25 09:31:12;;;;;;;17.92;9.40;;;;;;;9.81;62.06;101516.00;5003011;28;96822;-71
2022/12/25 09:33:38;;;;;;;18.33;9.45;;;;;;;9.87;62.30;101518.53;5008694;28;96709;-72
2022/12/25 09:36:07;;;;;;;22.25;9.57;;;;;;;9.73;62.14;101518.78;5003530;28;99302;-72
2022/12/25 09:38:35;;;;;;;27.58;10.57;;;;;;;9.66;62.99;101516.28;5008220;28;98760;-72
2022/12/25 09:41:05;;;;;;;23.63;10.55;;;;;;;9.72;62.51;101501.22;5005305;28;96984;-71
2022/12/25 09:43:38;;;;;;;20.15;10.00;;;;;;;9.81;62.66;101502.81;5008620;28;98210;-72
2022/12/25 09:46:10;;;;;;;23.70;10.63;;;;;;;9.70;62.96;101504.81;5005011;28;98979;-71
2022/12/25 09:48:42;;;;;;;24.58;9.90;;;;;;;10.05;62.55;101509.34;5005115;28;97670;-72
2022/12/25 09:51:14;;;;;;;22.63;9.50;;;;;;;9.70;63.41;101524.16;5002744;28;96832;-72
2022/12/25 09:53:48;;;;;;;19.90;9.27;;;;;;;9.85;63.26;101522.94;5004603;28;96861;-72
2022/12/25 09:56:18;;;;;;;22.20;9.77;;;;;;;9.63;63.34;101517.25;5002231;28;99743;-71
2022/12/25 09:58:45;;;;;;;19.85;9.68;;;;;;;9.86;63.32;101522.06;5007755;28;101663;-71
2022/12/25 10:01:17;;;;;;;26.58;9.38;;;;;;;9.80;63.27;101524.81;5002280;28;96759;-71
2022/12/25 10:04:24;;;;;;;21.30;9.85;;;;;;;10.12;62.05;101521.50;5004470;28;96959;-66
2022/12/25 10:07:06;;;;;;;21.45;10.13;;;;;;;10.14;62.36;101522.34;5005659;28;102281;-72
2022/12/25 10:09:56;;;;;;;19.00;9.30;;;;;;;10.19;62.55;101525.78;5000769;28;98939;-71
2022/12/25 10:12:37;;;;;;;26.67;9.18;;;;;;;10.27;61.83;101519.44;5003476;28;97167;-73
2022/12/25 10:15:17;;;;;;;21.40;9.20;;;;;;;10.45;61.79;101512.88;5002733;28;96831;-71
2022/12/25 10:18:04;;;;;;;21.45;9.45;;;;;;;10.48;61.59;101519.88;5004636;28;102289;-73
2022/12/25 10:20:45;;;;;;;21.67;9.37;;;;;;;10.32;61.57;101511.41;4999753;28;99018;-72
2022/12/25 10:23:16;;;;;;;20.13;9.50;;;;;;;10.27;62.58;101518.59;5003624;28;96850;-71
2022/12/25 10:25:44;;;;;;;24.67;10.50;;;;;;;10.31;61.76;101509.69;5008574;28;97257;-71
2022/12/25 10:28:14;;;;;;;23.05;11.43;;;;;;;10.24;62.46;101508.09;5007134;28;99323;-72
2022/12/25 10:30:44;;;;;;;23.05;10.93;;;;;;;10.54;61.77;101504.75;5013537;28;98873;-72
2022/12/25 10:33:13;;;;;;;23.20;10.70;;;;;;;10.59;61.62;101502.00;4998925;28;97216;-72
2022/12/25 10:35:41;;;;;;;23.40;10.80;;;;;;;10.49;61.68;101501.34;5005815;28;96555;-70
2022/12/25 10:38:14;;;;;;;26.48;10.85;;;;;;;10.72;60.97;101501.66;5003755;28;98928;-72
2022/12/25 10:40:53;;;;;;;26.88;9.93;;;;;;;10.60;61.23;101494.03;5004746;28;98491;-72
2022/12/25 10:43:26;;;;;;;24.25;10.02;;;;;;;10.30;61.84;101495.63;4996538;28;96778;-71
2022/12/25 10:45:53;;;;;;;23.52;10.55;;;;;;;10.51;61.30;101488.97;5009172;28;96847;-73
2022/12/25 10:48:22;;;;;;;24.52;10.88;;;;;;;10.49;61.29;101471.41;5003459;28;99104;-72
2022/12/25 10:50:50;;;;;;;29.90;11.82;;;;;;;10.19;61.83;101470.34;5005041;28;98836;-72
2022/12/25 10:53:20;;;;;;;25.27;11.77;;;;;;;10.17;62.47;101472.16;5004073;28;97196;-71
2022/12/25 10:55:58;;;;;;;25.58;12.02;;;;;;;10.36;62.07;101462.91;5005609;28;96670;-71
2022/12/25 10:58:25;;;;;;;28.13;13.52;;;;;;;10.26;62.55;101461.38;5004360;28;99683;-71
2022/12/25 11:00:54;;;;;;;24.30;12.68;;;;;;;10.30;61.88;101468.34;5006676;28;101047;-73
2022/12/25 11:03:23;;;;;;;30.33;14.13;;;;;;;10.29;62.59;101472.75;5005236;28;96973;-71
2022/12/25 11:05:51;;;;;;;33.45;15.30;;;;;;;10.55;61.90;101471.28;5007498;28;97114;-71
2022/12/25 11:08:21;;;;;;;34.10;14.48;;;;;;;10.37;62.42;101469.94;5005537;28;98178;-71
2022/12/25 11:10:53;;;;;;;34.97;15.88;;;;;;;10.31;62.77;101475.34;5006689;28;98829;-72
2022/12/25 11:13:23;;;;;;;32.17;15.18;;;;;;;10.77;61.60;101468.06;5004811;28;97984;-72
2022/12/25 11:16:00;;;;;;;32.50;13.80;;;;;;;10.69;61.60;101466.53;5002214;28;97201;-72
2022/12/25 11:18:29;;;;;;;28.52;14.50;;;;;;;10.64;61.74;101474.53;5009333;28;99511;-72
2022/12/25 11:20:59;;;;;;;31.90;13.98;;;;;;;10.89;61.21;101476.59;5003980;28;98057;-72
2022/12/25 11:23:28;;;;;;;33.88;14.35;;;;;;;10.73;61.41;101474.34;5006673;28;96993;-71
2022/12/25 11:25:56;;;;;;;28.10;13.63;;;;;;;10.47;61.45;101478.50;5007182;28;96879;-72
2022/12/25 11:28:24;;;;;;;29.60;13.27;;;;;;;10.61;62.02;101472.00;5007688;28;99363;-71
2022/12/25 11:30:54;;;;;;;28.27;13.90;;;;;;;10.49;61.57;101469.66;5008670;28;98791;-66
2022/12/25 11:33:27;;;;;;;26.23;13.93;;;;;;;10.56;61.93;101481.81;5004361;28;96789;-67
2022/12/25 11:36:13;;;;;;;25.13;13.48;;;;;;;10.42;62.70;101478.63;5001439;28;96928;-71
2022/12/25 11:38:41;;;;;;;24.73;13.35;;;;;;;10.65;62.23;101473.66;5003619;28;101152;-72
2022/12/25 11:41:11;;;;;;;25.77;14.20;;;;;;;10.47;62.78;101445.03;5003521;28;98891;-71
2022/12/25 11:43:42;;;;;;;26.63;13.63;;;;;;;10.45;62.88;101440.66;4999170;28;96841;-71
2022/12/25 11:46:12;;;;;;;25.80;12.40;;;;;;;10.67;62.44;101439.25;5003905;28;96945;-73
2022/12/25 11:48:44;;;;;;;22.20;12.68;;;;;;;10.55;62.54;101424.56;5002329;28;99822;-73
2022/12/25 11:51:12;;;;;;;27.65;12.40;;;;;;;10.84;62.02;101397.38;5010815;28;97591;-72
2022/12/25 11:53:44;;;;;;;26.38;13.70;;;;;;;10.91;61.82;101392.81;5002918;28;96788;-73
2022/12/25 11:56:15;;;;;;;24.15;12.75;;;;;;;11.02;61.79;101373.13;5005869;28;96805;-71
2022/12/25 11:58:46;;;;;;;31.08;14.52;;;;;;;11.21;60.91;101362.88;4997192;28;99151;-71
2022/12/25 12:01:17;;;;;;;29.58;15.25;;;;;;;10.85;61.49;101361.25;4997567;28;98965;-70
2022/12/25 12:03:45;;;;;;;27.42;14.88;;;;;;;11.08;61.10;101349.16;4998102;28;96829;-72
2022/12/25 12:06:18;;;;;;;35.80;15.38;;;;;;;10.93;61.38;101353.97;5004808;28;97208;-72
2022/12/25 12:08:50;;;;;;;34.70;15.00;;;;;;;10.71;62.59;101354.53;4997992;28;99296;-72
2022/12/25 12:11:19;;;;;;;32.35;15.63;;;;;;;10.60;62.91;101358.38;5002203;28;99120;-71
2022/12/25 12:14:05;;;;;;;31.75;15.32;;;;;;;10.90;62.23;101364.63;5005986;28;96721;-73
2022/12/25 12:16:31;;;;;;;27.70;14.82;;;;;;;11.03;62.04;101371.31;5003881;28;96782;-71
2022/12/25 12:18:58;;;;;;;28.73;14.75;;;;;;;10.77;62.35;101382.59;5002354;28;99085;-72
2022/12/25 12:21:27;;;;;;;31.77;14.43;;;;;;;10.53;63.59;101385.88;5006160;28;98797;-65
2022/12/25 12:24:01;;;;;;;34.60;15.68;;;;;;;10.78;62.98;101382.56;5001961;28;96929;-67
2022/12/25 12:26:29;;;;;;;28.08;15.38;;;;;;;10.96;62.38;101381.19;5005799;28;97190;-66
2022/12/25 12:28:58;;;;;;;33.67;15.98;;;;;;;10.53;63.78;101370.88;5000114;28;98998;-65
2022/12/25 12:31:36;;;;;;;34.90;14.82;;;;;;;10.98;62.76;101360.00;5003161;28;98904;-66
2022/12/25 12:34:02;;;;;;;28.75;14.60;;;;;;;10.71;63.13;101364.25;5002240;28;97923;-66
2022/12/25 12:36:29;;;;;;;28.20;15.20;;;;;;;11.04;62.64;101350.13;5006662;28;96866;-64
2022/12/25 12:39:00;;;;;;;31.50;16.05;;;;;;;11.16;62.31;101347.13;5008935;28;99933;-67
2022/12/25 12:41:46;;;;;;;27.63;14.70;;;;;;;11.21;62.13;101354.94;5004127;28;99295;-66
2022/12/25 12:44:14;;;;;;;30.85;15.15;;;;;;;11.28;61.98;101360.94;5005658;28;96835;-66
2022/12/25 12:46:51;;;;;;;28.42;15.10;;;;;;;11.28;61.68;101364.44;5006945;28;96847;-65
2022/12/25 12:49:22;;;;;;;28.90;15.38;;;;;;;11.15;61.93;101360.41;5007750;28;99422;-65
2022/12/25 12:51:49;;;;;;;30.08;15.27;;;;;;;11.12;62.09;101345.50;5008605;28;97667;-65
2022/12/25 12:54:21;;;;;;;26.52;14.20;;;;;;;11.14;62.28;101332.22;5007438;28;97237;-65
2022/12/25 12:56:56;;;;;;;30.42;14.02;;;;;;;11.08;62.48;101343.84;5002230;28;96740;-67
2022/12/25 12:59:23;;;;;;;30.20;14.73;;;;;;;11.10;62.64;101338.50;5004626;28;99572;-65
2022/12/25 13:02:04;;;;;;;33.25;15.88;;;;;;;10.90;62.91;101330.25;5005155;28;98830;-65
2022/12/25 13:04:51;;;;;;;27.88;14.15;;;;;;;11.19;62.76;101335.59;5004582;28;96787;-66
2022/12/25 13:07:42;;;;;;;22.25;12.65;;;;;;;11.12;62.77;101341.97;5012230;28;96898;-66
2022/12/25 13:10:21;;;;;;;25.42;12.27;;;;;;;11.18;62.54;101340.03;5001616;28;101472;-66
2022/12/25 13:12:53;;;;;;;23.85;12.07;;;;;;;10.99;63.32;101348.53;5009081;28;98656;-65
2022/12/25 13:15:22;;;;;;;18.20;10.90;;;;;;;11.39;62.54;101335.03;5006765;28;96778;-67